Terminal Aerodrome Forecast
Issued by NWS

Home | Current Version | Previous Version | Text Only | Print | Product List | Glossary On
Versions: 1 2 3 4 5 6 7 8 9 10 11 12 13 14 15 16
000
FTUS43 KPAH 231720
TAFCGI
TAF
KCGI 231720Z 2318/2418 10010KT P6SM VCSH SCT015 BKN035
      TEMPO 2318/2320 5SM -SHRA BR BKN015
     FM232000 06005KT P6SM VCSH OVC035
     FM240000 01005KT P6SM VCSH OVC050
      TEMPO 2400/2404 4SM -SHRA OVC025
     FM240400 35005KT 6SM BR VCSH BKN008
     FM241500 35012KT P6SM SCT007 OVC015=

USA.gov is the U.S. government's official web portal to all federal, state and local government web resources and services.